createdAt,value
2022-12-01T00:00:03.413Z,1008.97
2022-12-01T00:01:03.374Z,1009.01
2022-12-01T00:02:03.501Z,1009.02
2022-12-01T00:03:03.720Z,1009.02
2022-12-01T00:04:03.365Z,1009.01
2022-12-01T00:05:03.323Z,1008.99
2022-12-01T00:06:03.325Z,1009.04
2022-12-01T00:07:03.294Z,1008.99
2022-12-01T00:08:03.431Z,1009.00
2022-12-01T00:09:03.316Z,1009.01
2022-12-01T00:10:03.269Z,1008.97
2022-12-01T00:11:03.245Z,1008.95
2022-12-01T00:12:03.234Z,1008.97
2022-12-01T00:13:03.239Z,1008.94
2022-12-01T00:14:03.210Z,1008.96
2022-12-01T00:15:03.215Z,1008.94
2022-12-01T00:16:03.278Z,1008.95
2022-12-01T00:17:03.174Z,1008.97
2022-12-01T00:18:03.200Z,1008.96
2022-12-01T00:19:03.204Z,1008.95
2022-12-01T00:20:03.154Z,1008.96
2022-12-01T00:21:03.113Z,1008.95
2022-12-01T00:22:03.104Z,1008.98
2022-12-01T00:23:03.106Z,1008.98
2022-12-01T00:24:03.089Z,1008.99
2022-12-01T00:25:03.063Z,1008.98
2022-12-01T00:26:03.094Z,1008.98
2022-12-01T00:27:03.090Z,1008.97
2022-12-01T00:28:03.081Z,1008.97
2022-12-01T00:29:03.015Z,1008.97
2022-12-01T00:30:03.002Z,1008.93
2022-12-01T00:31:02.983Z,1008.94
2022-12-01T00:32:03.115Z,1008.95
2022-12-01T00:33:02.975Z,1008.94
2022-12-01T00:34:05.730Z,1008.96
2022-12-01T00:35:03.963Z,1008.94
2022-12-01T00:36:02.926Z,1008.97
2022-12-01T00:37:02.911Z,1008.92
2022-12-01T00:38:02.914Z,1008.94
2022-12-01T00:39:02.874Z,1008.94
2022-12-01T00:40:02.901Z,1008.95
2022-12-01T00:41:02.854Z,1008.98
2022-12-01T00:42:02.847Z,1008.96
2022-12-01T00:43:02.845Z,1008.95
2022-12-01T00:44:02.815Z,1008.95
2022-12-01T00:45:02.803Z,1008.99
2022-12-01T00:46:02.863Z,1008.93
2022-12-01T00:47:02.780Z,1008.92
2022-12-01T00:48:02.786Z,1008.95
2022-12-01T00:49:02.753Z,1008.96
2022-12-01T00:50:02.736Z,1008.94
2022-12-01T00:51:02.726Z,1008.96
2022-12-01T00:52:02.714Z,1008.97
2022-12-01T00:53:02.714Z,1008.98
2022-12-01T00:54:02.684Z,1009.00
2022-12-01T00:55:02.674Z,1008.97
2022-12-01T00:56:02.655Z,1009.00
2022-12-01T00:57:02.645Z,1008.98
2022-12-01T00:58:02.654Z,1008.96
2022-12-01T00:59:09.758Z,1008.94
2022-12-01T01:00:02.618Z,1008.97
2022-12-01T01:01:02.677Z,1008.97
2022-12-01T01:02:02.632Z,1008.98
2022-12-01T01:03:02.570Z,1008.94
2022-12-01T01:04:02.560Z,1008.97
2022-12-01T01:05:02.539Z,1008.99
2022-12-01T01:06:02.529Z,1008.98
2022-12-01T01:07:02.497Z,1009.01
2022-12-01T01:08:02.584Z,1009.01
2022-12-01T01:09:02.478Z,1009.01
2022-12-01T01:10:02.488Z,1009.00
2022-12-01T01:11:02.467Z,1009.00
2022-12-01T01:12:02.457Z,1009.02
2022-12-01T01:13:02.457Z,1009.00
2022-12-01T01:14:02.418Z,1008.98
2022-12-01T01:15:02.406Z,1009.02
2022-12-01T01:16:02.399Z,1008.97
2022-12-01T01:17:02.475Z,1008.99
2022-12-01T01:18:02.388Z,1008.99
2022-12-01T01:19:02.357Z,1009.02
2022-12-01T01:20:02.348Z,1009.03
2022-12-01T01:21:02.328Z,1009.01
2022-12-01T01:22:02.317Z,1009.00
2022-12-01T01:23:02.315Z,1008.98
2022-12-01T01:24:02.299Z,1009.01
2022-12-01T01:25:02.271Z,1008.98
2022-12-01T01:26:02.267Z,1008.94
2022-12-01T01:27:02.239Z,1008.96
2022-12-01T01:28:02.256Z,1008.97
2022-12-01T01:29:02.219Z,1008.99
2022-12-01T01:30:02.218Z,1008.98
2022-12-01T01:31:02.249Z,1008.97
2022-12-01T01:32:02.253Z,1008.95
2022-12-01T01:33:02.197Z,1008.96
2022-12-01T01:34:02.157Z,1008.98
2022-12-01T01:35:02.156Z,1009.01
2022-12-01T01:36:02.136Z,1009.02
2022-12-01T01:37:02.116Z,1009.06
2022-12-01T01:38:02.109Z,1009.02
2022-12-01T01:39:02.100Z,1009.06
2022-12-01T01:40:02.084Z,1009.03
2022-12-01T01:41:02.069Z,1009.06
2022-12-01T01:42:02.059Z,1009.07
2022-12-01T01:43:02.038Z,1009.06
2022-12-01T01:44:02.047Z,1009.03
2022-12-01T01:45:02.019Z,1009.07
2022-12-01T01:46:02.028Z,1009.13
2022-12-01T01:47:01.988Z,1009.09
2022-12-01T01:48:01.979Z,1009.10
2022-12-01T01:49:01.975Z,1009.10
2022-12-01T01:50:01.950Z,1009.07
2022-12-01T01:51:01.937Z,1009.08
2022-12-01T01:52:01.918Z,1009.10
2022-12-01T01:53:01.898Z,1009.08
2022-12-01T01:54:01.918Z,1009.05
2022-12-01T01:55:01.875Z,1009.07
2022-12-01T01:56:01.868Z,1009.06
2022-12-01T01:57:01.858Z,1009.07
2022-12-01T01:58:01.848Z,1009.10
2022-12-01T01:59:01.835Z,1009.07
2022-12-01T02:00:01.807Z,1009.09
2022-12-01T02:01:01.841Z,1009.11
2022-12-01T02:02:01.848Z,1009.08
2022-12-01T02:03:01.829Z,1009.06
2022-12-01T02:04:01.778Z,1009.12
2022-12-01T02:05:01.747Z,1009.10
2022-12-01T02:06:04.680Z,1009.09
2022-12-01T02:07:01.717Z,1009.10
2022-12-01T02:08:01.790Z,1009.10
2022-12-01T02:09:01.710Z,1009.06
2022-12-01T02:10:01.676Z,1009.08
2022-12-01T02:11:01.667Z,1009.09
2022-12-01T02:12:01.657Z,1009.03
2022-12-01T02:13:01.639Z,1009.03
2022-12-01T02:14:01.646Z,1009.03
2022-12-01T02:15:01.618Z,1009.01
2022-12-01T02:16:01.592Z,1009.04
2022-12-01T02:17:01.619Z,1009.01
2022-12-01T02:18:01.578Z,1009.02
2022-12-01T02:19:01.576Z,1009.02
2022-12-01T02:20:01.553Z,1008.99
2022-12-01T02:21:01.536Z,1009.02
2022-12-01T02:22:01.520Z,1009.04
2022-12-01T02:23:01.507Z,1009.06
2022-12-01T02:24:01.516Z,1009.07
2022-12-01T02:25:01.488Z,1009.05
2022-12-01T02:26:01.466Z,1009.03
2022-12-01T02:27:01.467Z,1009.05
2022-12-01T02:28:01.437Z,1009.00
2022-12-01T02:29:01.447Z,1009.03
2022-12-01T02:30:01.423Z,1009.00
2022-12-01T02:31:01.454Z,1009.00
2022-12-01T02:32:01.390Z,1008.97
2022-12-01T02:33:01.397Z,1008.96
2022-12-01T02:34:01.377Z,1008.97
2022-12-01T02:35:01.347Z,1008.96
2022-12-01T02:36:01.339Z,1008.90
2022-12-01T02:37:01.320Z,1008.93
2022-12-01T02:38:01.308Z,1008.93
2022-12-01T02:39:01.319Z,1008.89
2022-12-01T02:40:01.282Z,1008.90
2022-12-01T02:41:01.267Z,1008.91
2022-12-01T02:42:01.259Z,1008.90
2022-12-01T02:43:01.237Z,1008.93
2022-12-01T02:44:01.228Z,1008.93
2022-12-01T02:45:01.226Z,1008.95
2022-12-01T02:46:01.250Z,1008.98
2022-12-01T02:47:01.188Z,1008.95
2022-12-01T02:48:01.177Z,1008.95
2022-12-01T02:49:01.157Z,1008.97
2022-12-01T02:50:01.167Z,1008.97
2022-12-01T02:51:01.137Z,1008.94
2022-12-01T02:52:01.117Z,1008.98
2022-12-01T02:53:01.110Z,1008.98
2022-12-01T02:54:01.097Z,1008.99
2022-12-01T02:55:01.097Z,1008.99
2022-12-01T02:56:01.067Z,1008.99
2022-12-01T02:57:01.061Z,1009.02
2022-12-01T02:58:01.046Z,1008.98
2022-12-01T02:59:01.027Z,1009.02
2022-12-01T03:00:01.028Z,1009.02
2022-12-01T03:01:01.113Z,1009.01
2022-12-01T03:02:00.987Z,1009.01
2022-12-01T03:03:01.009Z,1008.99
2022-12-01T03:04:00.960Z,1009.01
2022-12-01T03:05:00.977Z,1008.98
2022-12-01T03:06:00.939Z,1009.01
2022-12-01T03:07:00.918Z,1008.99
2022-12-01T03:08:00.996Z,1008.98
2022-12-01T03:09:00.889Z,1009.01
2022-12-01T03:10:00.908Z,1009.00
2022-12-01T03:11:00.872Z,1008.98
2022-12-01T03:12:00.848Z,1008.99
2022-12-01T03:13:00.837Z,1009.00
2022-12-01T03:14:00.826Z,1008.99
2022-12-01T03:15:00.878Z,1008.94
2022-12-01T03:16:00.886Z,1008.97
2022-12-01T03:17:00.790Z,1008.96
2022-12-01T03:18:00.777Z,1008.94
2022-12-01T03:19:00.768Z,1008.95
2022-12-01T03:20:00.749Z,1008.95
2022-12-01T03:21:00.748Z,1008.95
2022-12-01T03:22:00.718Z,1008.96
2022-12-01T03:23:00.707Z,1008.89
2022-12-01T03:24:00.698Z,1008.94
2022-12-01T03:25:00.679Z,1008.95
2022-12-01T03:26:00.688Z,1008.97
2022-12-01T03:27:00.659Z,1008.93
2022-12-01T03:28:20.598Z,1008.93
2022-12-01T03:29:01.628Z,1008.94
2022-12-01T03:30:00.618Z,1008.95
2022-12-01T03:31:00.650Z,1008.89
2022-12-01T03:32:00.586Z,1008.91
2022-12-01T03:33:00.581Z,1008.91
2022-12-01T03:34:00.567Z,1008.96
2022-12-01T03:35:00.559Z,1008.95
2022-12-01T03:36:00.567Z,1008.94
2022-12-01T03:37:00.520Z,1008.98
2022-12-01T03:38:00.517Z,1008.96
2022-12-01T03:39:00.498Z,1008.93
2022-12-01T03:40:01.410Z,1008.92
2022-12-01T03:41:00.487Z,1008.92
2022-12-01T03:42:00.503Z,1008.93
2022-12-01T03:43:00.547Z,1008.95
2022-12-01T03:44:00.437Z,1008.99
2022-12-01T03:45:00.419Z,1008.99
2022-12-01T03:46:00.608Z,1008.94
2022-12-01T03:47:00.418Z,1008.95
2022-12-01T03:48:00.379Z,1008.94
2022-12-01T03:49:00.369Z,1008.88
2022-12-01T03:50:00.556Z,1008.87
2022-12-01T03:51:00.389Z,1008.92
2022-12-01T03:52:00.328Z,1008.88
2022-12-01T03:53:00.321Z,1008.95
2022-12-01T03:54:00.307Z,1008.93
2022-12-01T03:55:00.288Z,1008.94
2022-12-01T03:56:00.305Z,1008.90
2022-12-01T03:57:00.267Z,1008.96
2022-12-01T03:58:00.248Z,1008.94
2022-12-01T03:59:00.239Z,1008.92
2022-12-01T04:00:00.232Z,1008.92
2022-12-01T04:01:00.211Z,1008.93
2022-12-01T04:02:00.252Z,1008.94
2022-12-01T04:03:00.274Z,1008.94
2022-12-01T04:04:00.169Z,1008.93
2022-12-01T04:05:00.160Z,1008.96
2022-12-01T04:06:00.156Z,1008.99
2022-12-01T04:07:00.149Z,1008.99
2022-12-01T04:08:00.224Z,1009.00
2022-12-01T04:09:00.107Z,1008.99
2022-12-01T04:10:00.132Z,1008.96
2022-12-01T04:11:00.082Z,1008.98
2022-12-01T04:12:00.088Z,1008.98
2022-12-01T04:13:00.056Z,1009.02
2022-12-01T04:14:00.041Z,1009.00
2022-12-01T04:15:00.031Z,1008.98
2022-12-01T04:16:00.069Z,1009.02
2022-12-01T04:17:00.018Z,1009.02
2022-12-01T04:17:59.997Z,1009.02
2022-12-01T04:18:59.978Z,1009.08
2022-12-01T04:19:59.960Z,1009.04
2022-12-01T04:20:59.948Z,1009.04
2022-12-01T04:21:59.957Z,1009.06
2022-12-01T04:22:59.919Z,1009.06
2022-12-01T04:23:59.911Z,1009.01
2022-12-01T04:24:59.898Z,1009.06
2022-12-01T04:25:59.887Z,1009.04
2022-12-01T04:26:59.888Z,1009.04
2022-12-01T04:27:59.859Z,1009.04
2022-12-01T04:28:59.849Z,1009.02
2022-12-01T04:29:59.827Z,1009.05
2022-12-01T04:30:59.856Z,1009.06
2022-12-01T04:31:59.827Z,1009.03
2022-12-01T04:32:59.787Z,1009.06
2022-12-01T04:33:59.777Z,1009.06
2022-12-01T04:34:59.769Z,1009.04
2022-12-01T04:35:59.766Z,1009.08
2022-12-01T04:36:59.761Z,1009.07
2022-12-01T04:37:59.728Z,1009.07
2022-12-01T04:38:59.721Z,1009.05
2022-12-01T04:39:59.700Z,1009.06
2022-12-01T04:40:59.688Z,1009.07
2022-12-01T04:41:59.707Z,1009.09
2022-12-01T04:42:59.666Z,1009.05
2022-12-01T04:43:59.650Z,1009.05
2022-12-01T04:44:59.637Z,1009.06
2022-12-01T04:45:59.638Z,1009.05
2022-12-01T04:46:59.685Z,1009.11
2022-12-01T04:47:59.617Z,1009.05
2022-12-01T04:48:59.578Z,1009.07
2022-12-01T04:49:59.567Z,1009.04
2022-12-01T04:50:59.557Z,1009.08
2022-12-01T04:51:59.532Z,1009.08
2022-12-01T04:52:59.549Z,1009.06
2022-12-01T04:53:59.527Z,1009.10
2022-12-01T04:54:59.498Z,1009.09
2022-12-01T04:55:59.502Z,1009.09
2022-12-01T04:56:59.607Z,1009.09
2022-12-01T04:57:59.478Z,1009.15
2022-12-01T04:58:59.429Z,1009.09
2022-12-01T04:59:59.439Z,1009.14
2022-12-01T05:00:59.479Z,1009.15
2022-12-01T05:01:59.463Z,1009.17
2022-12-01T05:02:59.417Z,1009.11
2022-12-01T05:03:59.396Z,1009.17
2022-12-01T05:04:59.379Z,1009.16
2022-12-01T05:05:59.366Z,1009.12
2022-12-01T05:06:59.368Z,1009.12
2022-12-01T05:07:59.406Z,1009.18
2022-12-01T05:08:59.317Z,1009.17
2022-12-01T05:09:59.308Z,1009.17
2022-12-01T05:10:59.288Z,1009.17
2022-12-01T05:11:59.279Z,1009.18
2022-12-01T05:12:59.300Z,1009.18
2022-12-01T05:13:59.259Z,1009.20
2022-12-01T05:14:59.238Z,1009.17
2022-12-01T05:15:59.271Z,1009.20
2022-12-01T05:16:59.220Z,1009.19
2022-12-01T05:17:59.220Z,1009.20
2022-12-01T05:18:59.266Z,1009.25
2022-12-01T05:19:59.178Z,1009.23
2022-12-01T05:20:59.159Z,1009.21
2022-12-01T05:21:59.147Z,1009.22
2022-12-01T05:23:07.133Z,1009.20
2022-12-01T05:24:00.127Z,1009.24
2022-12-01T05:24:59.109Z,1009.23
2022-12-01T05:25:59.098Z,1009.22
2022-12-01T05:26:59.108Z,1009.25
2022-12-01T05:27:59.132Z,1009.26
2022-12-01T05:28:59.047Z,1009.22
2022-12-01T05:29:59.039Z,1009.24
2022-12-01T05:30:59.078Z,1009.24
2022-12-01T05:31:59.060Z,1009.25
2022-12-01T05:32:59.063Z,1009.21
2022-12-01T05:33:59.007Z,1009.25
2022-12-01T05:34:58.977Z,1009.22
2022-12-01T05:35:58.967Z,1009.23
2022-12-01T05:36:58.988Z,1009.24
2022-12-01T05:38:01.981Z,1009.24
2022-12-01T05:38:59.930Z,1009.27
2022-12-01T05:39:58.917Z,1009.23
2022-12-01T05:40:58.897Z,1009.25
2022-12-01T05:41:58.889Z,1009.26
2022-12-01T05:42:58.888Z,1009.21
2022-12-01T05:43:58.877Z,1009.25
2022-12-01T05:44:58.856Z,1009.24
2022-12-01T05:45:58.914Z,1009.22
2022-12-01T05:46:58.828Z,1009.23
2022-12-01T05:47:58.827Z,1009.26
2022-12-01T05:48:58.824Z,1009.25
2022-12-01T05:50:03.782Z,1009.25
2022-12-01T05:50:59.767Z,1009.22
2022-12-01T05:51:58.770Z,1009.26
2022-12-01T05:52:58.758Z,1009.23
2022-12-01T05:53:59.847Z,1009.21
2022-12-01T05:54:59.939Z,1009.22
2022-12-01T05:55:58.815Z,1009.24
2022-12-01T05:56:59.845Z,1009.30
2022-12-01T05:57:58.911Z,1009.28
2022-12-01T05:58:58.667Z,1009.26
2022-12-01T05:59:58.659Z,1009.26
2022-12-01T06:00:58.640Z,1009.27
2022-12-01T06:01:58.675Z,1009.26
2022-12-01T06:02:58.639Z,1009.25
2022-12-01T06:03:58.657Z,1009.30
2022-12-01T06:04:58.588Z,1009.29
2022-12-01T06:05:58.578Z,1009.28
2022-12-01T06:06:58.570Z,1009.29
2022-12-01T06:07:58.713Z,1009.28
2022-12-01T06:08:58.548Z,1009.31
2022-12-01T06:09:58.533Z,1009.28
2022-12-01T06:10:58.517Z,1009.28
2022-12-01T06:11:58.498Z,1009.33
2022-12-01T06:12:58.478Z,1009.30
2022-12-01T06:13:58.488Z,1009.32
2022-12-01T06:14:58.468Z,1009.34
2022-12-01T06:15:58.457Z,1009.34
2022-12-01T06:16:58.449Z,1009.35
2022-12-01T06:17:58.426Z,1009.33
2022-12-01T06:18:58.458Z,1009.34
2022-12-01T06:19:58.388Z,1009.34
2022-12-01T06:20:58.378Z,1009.35
2022-12-01T06:21:58.369Z,1009.33
2022-12-01T06:22:58.365Z,1009.31
2022-12-01T06:23:58.368Z,1009.37
2022-12-01T06:24:58.356Z,1009.38
2022-12-01T06:25:58.314Z,1009.40
2022-12-01T06:26:58.315Z,1009.41
2022-12-01T06:27:58.289Z,1009.41
2022-12-01T06:28:58.286Z,1009.43
2022-12-01T06:29:58.258Z,1009.43
2022-12-01T06:31:03.212Z,1009.45
2022-12-01T06:31:59.304Z,1009.46
2022-12-01T06:32:58.210Z,1009.46
2022-12-01T06:33:58.230Z,1009.45
2022-12-01T06:34:58.197Z,1009.47
2022-12-01T06:35:58.178Z,1009.49
2022-12-01T06:36:58.175Z,1009.49
2022-12-01T06:37:58.158Z,1009.50
2022-12-01T06:38:58.178Z,1009.51
2022-12-01T06:39:58.133Z,1009.54
2022-12-01T06:40:58.139Z,1009.53
2022-12-01T06:41:58.106Z,1009.54
2022-12-01T06:42:58.098Z,1009.51
2022-12-01T06:43:58.099Z,1009.53
2022-12-01T06:44:58.075Z,1009.59
2022-12-01T06:46:01.952Z,1009.61
2022-12-01T06:46:58.060Z,1009.62
2022-12-01T06:47:58.040Z,1009.61
2022-12-01T06:48:58.047Z,1009.61
2022-12-01T06:49:58.018Z,1009.65
2022-12-01T06:50:57.990Z,1009.64
2022-12-01T06:52:00.715Z,1009.64
2022-12-01T06:52:59.347Z,1009.66
2022-12-01T06:54:03.795Z,1009.69
2022-12-01T06:54:58.939Z,1009.69
2022-12-01T06:55:57.931Z,1009.73
2022-12-01T06:56:57.927Z,1009.73
2022-12-01T06:57:57.899Z,1009.72
2022-12-01T06:58:57.898Z,1009.72
2022-12-01T06:59:57.867Z,1009.72
2022-12-01T07:00:57.924Z,1009.75
2022-12-01T07:01:57.927Z,1009.75
2022-12-01T07:02:57.925Z,1009.75
2022-12-01T07:03:57.827Z,1009.75
2022-12-01T07:04:57.808Z,1009.76
2022-12-01T07:05:57.796Z,1009.78
2022-12-01T07:06:57.777Z,1009.77
2022-12-01T07:07:59.715Z,1009.78
2022-12-01T07:08:57.777Z,1009.78
2022-12-01T07:09:57.738Z,1009.78
2022-12-01T07:10:57.729Z,1009.81
2022-12-01T07:11:57.708Z,1009.81
2022-12-01T07:12:57.699Z,1009.79
2022-12-01T07:13:57.707Z,1009.85
2022-12-01T07:14:57.686Z,1009.83
2022-12-01T07:15:57.658Z,1009.83
2022-12-01T07:16:57.718Z,1009.88
2022-12-01T07:17:57.639Z,1009.88
2022-12-01T07:18:57.652Z,1009.87
2022-12-01T07:19:57.617Z,1009.88
2022-12-01T07:20:57.598Z,1009.87
2022-12-01T07:21:57.601Z,1009.90
2022-12-01T07:22:57.568Z,1009.87
2022-12-01T07:23:57.577Z,1009.88
2022-12-01T07:24:57.562Z,1009.93
2022-12-01T07:25:57.527Z,1009.94
2022-12-01T07:26:57.525Z,1009.94
2022-12-01T07:27:57.517Z,1009.95
2022-12-01T07:28:57.508Z,1009.96
2022-12-01T07:29:57.484Z,1009.94
2022-12-01T07:30:57.508Z,1009.89
2022-12-01T07:31:57.458Z,1009.94
2022-12-01T07:32:57.457Z,1009.90
2022-12-01T07:33:57.440Z,1009.91
2022-12-01T07:34:57.455Z,1009.94
2022-12-01T07:35:57.389Z,1009.91
2022-12-01T07:36:57.389Z,1009.94
2022-12-01T07:37:57.367Z,1009.93
2022-12-01T07:38:57.389Z,1009.96
2022-12-01T07:39:57.376Z,1009.93
2022-12-01T07:40:57.339Z,1009.91
2022-12-01T07:41:57.339Z,1009.95
2022-12-01T07:42:57.307Z,1009.93
2022-12-01T07:43:57.318Z,1009.96
2022-12-01T07:44:57.280Z,1009.96
2022-12-01T07:45:57.310Z,1009.98
2022-12-01T07:46:57.257Z,1009.99
2022-12-01T07:47:57.238Z,1010.01
2022-12-01T07:48:57.247Z,1010.00
2022-12-01T07:49:57.217Z,1010.04
2022-12-01T07:50:57.208Z,1010.04
2022-12-01T07:51:57.187Z,1010.08
2022-12-01T07:52:57.179Z,1010.08
2022-12-01T07:53:57.190Z,1010.05
2022-12-01T07:54:57.154Z,1010.09
2022-12-01T07:55:57.138Z,1010.11
2022-12-01T07:56:57.149Z,1010.13
2022-12-01T07:57:57.107Z,1010.14
2022-12-01T07:58:57.107Z,1010.12
2022-12-01T07:59:57.087Z,1010.16
2022-12-01T08:00:57.078Z,1010.13
2022-12-01T08:01:57.100Z,1010.17
2022-12-01T08:02:57.150Z,1010.17
2022-12-01T08:03:57.054Z,1010.14
2022-12-01T08:04:57.027Z,1010.17
2022-12-01T08:05:57.007Z,1010.18
2022-12-01T08:06:56.999Z,1010.17
2022-12-01T08:07:57.026Z,1010.22
2022-12-01T08:08:56.988Z,1010.18
2022-12-01T08:09:56.988Z,1010.21
2022-12-01T08:10:56.969Z,1010.19
2022-12-01T08:11:56.938Z,1010.20
2022-12-01T08:12:56.926Z,1010.19
2022-12-01T08:13:56.908Z,1010.19
2022-12-01T08:14:56.906Z,1010.20
2022-12-01T08:15:56.947Z,1010.20
2022-12-01T08:16:56.868Z,1010.20
2022-12-01T08:17:56.847Z,1010.21
2022-12-01T08:18:56.846Z,1010.24
2022-12-01T08:19:56.847Z,1010.22
2022-12-01T08:20:56.807Z,1010.27
2022-12-01T08:21:56.787Z,1010.23
2022-12-01T08:22:56.789Z,1010.28
2022-12-01T08:23:56.788Z,1010.29
2022-12-01T08:24:56.768Z,1010.25
2022-12-01T08:25:56.737Z,1010.27
2022-12-01T08:26:56.735Z,1010.29
2022-12-01T08:27:56.776Z,1010.29
2022-12-01T08:28:56.708Z,1010.30
2022-12-01T08:29:56.707Z,1010.29
2022-12-01T08:30:56.758Z,1010.34
2022-12-01T08:31:56.668Z,1010.34
2022-12-01T08:32:56.647Z,1010.34
2022-12-01T08:33:56.637Z,1010.29
2022-12-01T08:34:56.647Z,1010.28
2022-12-01T08:35:56.607Z,1010.31
2022-12-01T08:36:56.601Z,1010.32
2022-12-01T08:37:56.583Z,1010.32
2022-12-01T08:38:56.567Z,1010.31
2022-12-01T08:39:56.567Z,1010.31
2022-12-01T08:40:56.540Z,1010.34
2022-12-01T08:41:56.556Z,1010.31
2022-12-01T08:42:56.518Z,1010.34
2022-12-01T08:43:58.408Z,1010.39
2022-12-01T08:44:56.578Z,1010.42
2022-12-01T08:45:56.485Z,1010.43
2022-12-01T08:46:56.623Z,1010.41
2022-12-01T08:47:56.459Z,1010.38
2022-12-01T08:48:56.444Z,1010.42
2022-12-01T08:49:56.438Z,1010.40
2022-12-01T08:50:56.436Z,1010.41
2022-12-01T08:51:56.402Z,1010.39
2022-12-01T08:52:56.405Z,1010.41
2022-12-01T08:53:56.366Z,1010.40
2022-12-01T08:54:56.377Z,1010.41
2022-12-01T08:55:56.348Z,1010.38
2022-12-01T08:56:56.367Z,1010.35
2022-12-01T08:57:56.316Z,1010.35
2022-12-01T08:58:56.315Z,1010.39
2022-12-01T08:59:56.310Z,1010.38
2022-12-01T09:00:56.294Z,1010.41
2022-12-01T09:01:56.340Z,1010.45
2022-12-01T09:02:56.313Z,1010.38
2022-12-01T09:03:56.236Z,1010.43
2022-12-01T09:04:56.266Z,1010.43
2022-12-01T09:05:56.217Z,1010.45
2022-12-01T09:06:56.209Z,1010.47
2022-12-01T09:07:56.220Z,1010.44
2022-12-01T09:08:56.179Z,1010.44
2022-12-01T09:09:56.176Z,1010.46
2022-12-01T09:10:56.156Z,1010.46
2022-12-01T09:11:56.136Z,1010.47
2022-12-01T09:12:56.127Z,1010.49
2022-12-01T09:13:56.106Z,1010.49
2022-12-01T09:14:56.115Z,1010.48
2022-12-01T09:15:56.130Z,1010.49
2022-12-01T09:16:56.076Z,1010.48
2022-12-01T09:17:56.056Z,1010.49
2022-12-01T09:18:56.037Z,1010.52
2022-12-01T09:19:56.056Z,1010.49
2022-12-01T09:20:56.018Z,1010.51
2022-12-01T09:21:55.996Z,1010.51
2022-12-01T09:22:55.994Z,1010.52
2022-12-01T09:23:55.977Z,1010.52
2022-12-01T09:24:55.977Z,1010.52
2022-12-01T09:25:55.946Z,1010.56
2022-12-01T09:26:55.956Z,1010.53
2022-12-01T09:27:55.926Z,1010.57
2022-12-01T09:28:55.906Z,1010.57
2022-12-01T09:29:55.913Z,1010.54
2022-12-01T09:30:56.089Z,1010.55
2022-12-01T09:31:55.908Z,1010.54
2022-12-01T09:32:55.856Z,1010.54
2022-12-01T09:33:55.836Z,1010.55
2022-12-01T09:34:55.847Z,1010.54
2022-12-01T09:35:55.816Z,1010.59
2022-12-01T09:36:55.810Z,1010.58
2022-12-01T09:37:55.786Z,1010.59
2022-12-01T09:38:55.787Z,1010.58
2022-12-01T09:39:55.775Z,1010.60
2022-12-01T09:40:55.745Z,1010.56
2022-12-01T09:41:55.739Z,1010.60
2022-12-01T09:42:55.728Z,1010.59
2022-12-01T09:43:55.706Z,1010.57
2022-12-01T09:44:55.726Z,1010.61
2022-12-01T09:45:55.686Z,1010.58
2022-12-01T09:46:55.712Z,1010.60
2022-12-01T09:47:55.694Z,1010.61
2022-12-01T09:48:55.653Z,1010.57
2022-12-01T09:49:55.647Z,1010.61
2022-12-01T09:50:55.616Z,1010.59
2022-12-01T09:51:55.607Z,1010.57
2022-12-01T09:52:55.600Z,1010.58
2022-12-01T09:53:55.591Z,1010.59
2022-12-01T09:54:55.575Z,1010.57
2022-12-01T09:56:00.638Z,1010.56
2022-12-01T09:56:56.543Z,1010.57
2022-12-01T09:57:55.538Z,1010.59
2022-12-01T09:58:55.529Z,1010.60
2022-12-01T09:59:55.506Z,1010.58
2022-12-01T10:00:55.566Z,1010.59
2022-12-01T10:01:55.524Z,1010.56
2022-12-01T10:02:55.466Z,1010.59
2022-12-01T10:03:55.445Z,1010.56
2022-12-01T10:04:55.512Z,1010.56
2022-12-01T10:06:26.625Z,1010.53
2022-12-01T10:06:56.419Z,1010.61
2022-12-01T10:07:55.448Z,1010.59
2022-12-01T10:08:55.395Z,1010.63
2022-12-01T10:09:55.406Z,1010.63
2022-12-01T10:10:55.376Z,1010.59
2022-12-01T10:11:55.335Z,1010.58
2022-12-01T10:12:55.334Z,1010.59
2022-12-01T10:13:55.326Z,1010.61
2022-12-01T10:14:55.309Z,1010.55
2022-12-01T10:15:55.373Z,1010.51
2022-12-01T10:16:55.278Z,1010.54
2022-12-01T10:17:55.277Z,1010.56
2022-12-01T10:18:55.277Z,1010.54
2022-12-01T10:19:55.227Z,1010.51
2022-12-01T10:20:55.246Z,1010.51
2022-12-01T10:21:55.216Z,1010.52
2022-12-01T10:22:55.195Z,1010.49
2022-12-01T10:23:55.194Z,1010.49
2022-12-01T10:24:55.175Z,1010.46
2022-12-01T10:25:55.196Z,1010.50
2022-12-01T10:26:55.151Z,1010.46
2022-12-01T10:27:55.149Z,1010.41
2022-12-01T10:28:55.136Z,1010.43
2022-12-01T10:29:55.120Z,1010.44
2022-12-01T10:30:55.106Z,1010.42
2022-12-01T10:31:55.117Z,1010.44
2022-12-01T10:32:55.069Z,1010.39
2022-12-01T10:33:55.063Z,1010.43
2022-12-01T10:34:55.035Z,1010.35
2022-12-01T10:35:55.069Z,1010.36
2022-12-01T10:36:55.016Z,1010.34
2022-12-01T10:37:55.084Z,1010.34
2022-12-01T10:38:55.003Z,1010.34
2022-12-01T10:39:54.987Z,1010.34
2022-12-01T10:40:54.986Z,1010.32
2022-12-01T10:41:54.956Z,1010.29
2022-12-01T10:42:54.996Z,1010.30
2022-12-01T10:43:54.946Z,1010.26
2022-12-01T10:44:54.906Z,1010.25
2022-12-01T10:45:54.930Z,1010.24
2022-12-01T10:46:54.958Z,1010.25
2022-12-01T10:47:57.659Z,1010.27
2022-12-01T10:48:54.857Z,1010.27
2022-12-01T10:49:54.848Z,1010.28
2022-12-01T10:50:54.844Z,1010.24
2022-12-01T10:51:54.838Z,1010.21
2022-12-01T10:52:54.805Z,1010.24
2022-12-01T10:53:54.807Z,1010.19
2022-12-01T10:54:54.786Z,1010.22
2022-12-01T10:55:54.798Z,1010.21
2022-12-01T10:56:54.759Z,1010.24
2022-12-01T10:57:54.744Z,1010.20
2022-12-01T10:58:54.734Z,1010.21
2022-12-01T10:59:54.718Z,1010.18
2022-12-01T11:01:02.251Z,1010.17
2022-12-01T11:01:55.886Z,1010.16
2022-12-01T11:02:54.887Z,1010.16
2022-12-01T11:03:54.704Z,1010.16
2022-12-01T11:04:54.688Z,1010.18
2022-12-01T11:05:54.686Z,1010.15
2022-12-01T11:06:54.632Z,1010.15
2022-12-01T11:07:54.713Z,1010.13
2022-12-01T11:08:54.598Z,1010.15
2022-12-01T11:09:54.607Z,1010.13
2022-12-01T11:10:54.577Z,1010.11
2022-12-01T11:11:54.584Z,1010.10
2022-12-01T11:12:54.546Z,1010.11
2022-12-01T11:13:54.516Z,1010.12
2022-12-01T11:14:54.534Z,1010.13
2022-12-01T11:15:54.506Z,1010.10
2022-12-01T11:16:54.605Z,1010.11
2022-12-01T11:17:54.485Z,1010.09
2022-12-01T11:18:54.502Z,1010.08
2022-12-01T11:19:54.510Z,1010.07
2022-12-01T11:20:54.447Z,1010.07
2022-12-01T11:21:54.455Z,1010.07
2022-12-01T11:22:54.418Z,1010.09
2022-12-01T11:23:54.414Z,1010.07
2022-12-01T11:24:54.395Z,1010.02
2022-12-01T11:25:54.385Z,1010.03
2022-12-01T11:26:54.391Z,1010.03
2022-12-01T11:27:54.346Z,1010.03
2022-12-01T11:28:54.334Z,1010.02
2022-12-01T11:29:54.335Z,1009.97
2022-12-01T11:30:56.696Z,1010.00
2022-12-01T11:31:54.375Z,1009.96
2022-12-01T11:32:54.284Z,1009.95
2022-12-01T11:33:54.285Z,1010.01
2022-12-01T11:34:54.257Z,1009.99
2022-12-01T11:35:54.252Z,1010.00
2022-12-01T11:36:54.246Z,1009.97
2022-12-01T11:38:27.579Z,1009.99
2022-12-01T11:38:55.204Z,1009.98
2022-12-01T11:39:54.200Z,1010.00
2022-12-01T11:40:54.178Z,1010.00
2022-12-01T11:41:54.197Z,1009.99
2022-12-01T11:42:54.155Z,1010.00
2022-12-01T11:44:01.629Z,1009.96
2022-12-01T11:44:55.124Z,1009.96
2022-12-01T11:45:54.152Z,1009.93
2022-12-01T11:47:07.813Z,1009.93
2022-12-01T11:47:55.113Z,1009.95
2022-12-01T11:48:54.098Z,1009.93
2022-12-01T11:49:54.145Z,1009.91
2022-12-01T11:50:54.063Z,1009.91
2022-12-01T11:51:54.044Z,1009.92
2022-12-01T11:52:54.078Z,1009.90
2022-12-01T11:53:54.015Z,1009.92
2022-12-01T11:54:53.995Z,1009.92
2022-12-01T11:55:54.645Z,1009.91
2022-12-01T11:57:25.340Z,1009.92
2022-12-01T11:57:54.982Z,1009.93
2022-12-01T11:58:53.968Z,1009.91
2022-12-01T11:59:53.944Z,1009.88
2022-12-01T12:00:53.915Z,1009.92
2022-12-01T12:01:53.998Z,1009.92
2022-12-01T12:02:53.923Z,1009.89
2022-12-01T12:03:53.932Z,1009.91
2022-12-01T12:04:53.923Z,1009.87